メインページ
METAR-TAF:

METAR-TAF

空港 :

アドルフォ・スアレス・マドリード=バラハス空港

マドリード, スペイン

緯度: 40-27N, 経度: 003-33W, 海抜: 609m

現時点の気象観測

当レポートは29分前の22:30(UTC)に作成
東/北東の風 7kt、北/北東から東/南東の間で変化する
気温 22°C
湿度 50%
気圧 1022 hPa
視程10km以上
1,500メートル以下は雲なし、積乱雲なし

METAR: LEMD 182230Z 06007KT 020V110 CAVOK 22/11 Q1022 NOSIG

時間: 00:59 (22:59 UTC)

予報

当レポートは5時間59分前の17:00(UTC)に作成
予報は18日の 18時(UTC)から 19日の 24時(UTC)まで有効
東/北東の風 8kt
視程10km以上
1,500メートル以下は雲なし、積乱雲なし
19日の 11時(UTC)から 19日の 18時(UTC)まで一時的に
南/南東の風 8kt、最大18ktの突風を伴う

TAF: LEMD 181700Z 1818/1924 06008KT CAVOK TX33/1915Z TN16/1906Z TEMPO 1911/1918 16008G18KT

4,000以上の空港の気象観測と天気予報(METAR報とTAF報)

利用可能な観測所は地図上に黄色い丸と赤い丸で示す。

丸の上にカーソルを重ねると観測所名を参照できる。

次にクリックすると気象観測と天気予報を参照できる。

マップの切り替え:黒色「×」印の緑ボタンをクリックして拡大、「-」印の緑ボタンをクリックして縮小、緑色の三角印をクリックして隣りの地図に切り替え


METAR-TAF: